createdAt,value
2023-04-04T00:00:50.976Z,101269.19
2023-04-04T00:06:07.797Z,101264.90
2023-04-04T00:11:11.437Z,101259.34
2023-04-04T00:16:15.097Z,101264.00
2023-04-04T00:21:28.718Z,101258.73
2023-04-04T00:27:01.342Z,101255.05
2023-04-04T00:32:14.910Z,101252.09
2023-04-04T00:37:18.341Z,101255.36
2023-04-04T00:42:22.448Z,101250.91
2023-04-04T00:47:37.906Z,101244.94
2023-04-04T00:52:41.426Z,101241.33
2023-04-04T00:57:55.343Z,101233.46
2023-04-04T01:02:59.481Z,101228.52
2023-04-04T01:08:02.839Z,101218.73
2023-04-04T01:13:06.863Z,101212.80
2023-04-04T01:18:14.590Z,101204.75
2023-04-04T01:23:18.671Z,101199.27
2023-04-04T01:28:26.218Z,101199.76
2023-04-04T01:33:37.750Z,101202.04
2023-04-04T01:39:15.610Z,101196.32
2023-04-04T01:44:19.417Z,101195.10
2023-04-04T01:49:25.903Z,101201.39
2023-04-04T01:54:36.059Z,101198.07
2023-04-04T01:59:39.649Z,101201.05
2023-04-04T02:04:46.514Z,101198.05
2023-04-04T02:09:53.559Z,101201.65
2023-04-04T02:15:00.524Z,101204.05
2023-04-04T02:20:07.779Z,101205.46
2023-04-04T02:25:11.150Z,101206.09
2023-04-04T02:30:19.982Z,101201.67
2023-04-04T02:35:26.194Z,101202.81
2023-04-04T02:40:29.823Z,101203.86
2023-04-04T02:45:36.376Z,101204.98
2023-04-04T02:50:48.155Z,101214.27
2023-04-04T02:55:51.843Z,101220.32
2023-04-04T03:00:55.997Z,101223.60
2023-04-04T03:06:03.357Z,101224.00
2023-04-04T03:11:06.926Z,101222.61
2023-04-04T03:16:16.551Z,101225.66
2023-04-04T03:21:23.952Z,101227.64
2023-04-04T03:26:32.577Z,101219.84
2023-04-04T03:31:39.372Z,101215.61
2023-04-04T03:37:00.708Z,101210.42
2023-04-04T03:42:04.354Z,101211.34
2023-04-04T03:47:12.408Z,101215.10
2023-04-04T03:52:15.940Z,101211.51
2023-04-04T03:57:19.862Z,101216.94
2023-04-04T04:02:23.373Z,101216.20
2023-04-04T04:07:31.200Z,101218.15
2023-04-04T04:12:34.748Z,101219.75
2023-04-04T04:17:42.254Z,101222.05
2023-04-04T04:22:47.624Z,101219.40
2023-04-04T04:27:55.576Z,101219.21
2023-04-04T04:33:02.255Z,101215.61
2023-04-04T04:38:11.018Z,101215.50
2023-04-04T04:43:15.269Z,101208.89
2023-04-04T04:48:18.992Z,101202.48
2023-04-04T04:53:42.653Z,101198.70
2023-04-04T04:59:19.251Z,101204.68
2023-04-04T05:04:23.550Z,101203.19
2023-04-04T05:09:52.710Z,101199.92
2023-04-04T05:14:58.405Z,101192.30
2023-04-04T05:20:02.629Z,101192.97
2023-04-04T05:25:06.814Z,101189.23
2023-04-04T05:30:11.738Z,101192.24
2023-04-04T05:35:26.147Z,101190.27
2023-04-04T05:40:32.835Z,101192.92
2023-04-04T05:45:49.767Z,101195.77
2023-04-04T05:51:06.567Z,101189.98
2023-04-04T05:56:20.093Z,101188.48
2023-04-04T06:01:26.898Z,101187.45
2023-04-04T06:06:35.826Z,101186.72
2023-04-04T06:11:40.089Z,101183.83
2023-04-04T06:17:07.805Z,101182.37
2023-04-04T06:22:11.743Z,101179.24
2023-04-04T06:27:22.500Z,101176.69
2023-04-04T06:32:40.057Z,101170.09
2023-04-04T06:38:17.067Z,101168.86
2023-04-04T06:43:43.924Z,101170.11
2023-04-04T06:48:47.765Z,101168.90
2023-04-04T06:53:53.678Z,101164.04
2023-04-04T06:58:59.570Z,101159.70
2023-04-04T07:04:03.747Z,101159.70
2023-04-04T07:09:12.796Z,101157.95
2023-04-04T07:15:01.506Z,101159.81
2023-04-04T07:20:19.424Z,101160.26
2023-04-04T07:25:23.176Z,101157.89
2023-04-04T07:30:46.868Z,101163.14
2023-04-04T07:35:50.449Z,101160.13
2023-04-04T07:40:59.625Z,101151.08
2023-04-04T07:46:24.626Z,101153.00
2023-04-04T07:51:54.823Z,101155.30
2023-04-04T07:56:58.296Z,101153.34
2023-04-04T08:02:07.435Z,101147.11
2023-04-04T08:07:13.932Z,101138.33
2023-04-04T08:12:57.862Z,101136.58
2023-04-04T08:18:21.533Z,101133.88
2023-04-04T08:23:55.940Z,101132.52
2023-04-04T08:30:05.727Z,101127.30
2023-04-04T08:35:43.767Z,101119.46
2023-04-04T08:40:48.106Z,101119.33
2023-04-04T08:46:10.083Z,101114.49
2023-04-04T08:51:31.980Z,101111.08
2023-04-04T08:56:56.357Z,101109.69
2023-04-04T09:02:12.163Z,101106.09
2023-04-04T09:07:56.675Z,101104.89
2023-04-04T09:13:15.502Z,101099.34
2023-04-04T09:18:20.209Z,101102.02
2023-04-04T09:23:26.475Z,101097.67
2023-04-04T09:28:29.881Z,101097.93
2023-04-04T09:33:34.424Z,101096.71
2023-04-04T09:38:41.064Z,101100.17
2023-04-04T09:43:49.455Z,101103.05
2023-04-04T09:49:00.387Z,101109.23
2023-04-04T09:54:18.792Z,101107.66
2023-04-04T09:59:49.926Z,101108.65
2023-04-04T10:05:05.648Z,101109.17
2023-04-04T10:10:33.207Z,101110.12
2023-04-04T10:15:39.229Z,101109.77
2023-04-04T10:20:43.663Z,101111.59
2023-04-04T10:25:50.608Z,101107.58
2023-04-04T10:31:26.086Z,101102.57
2023-04-04T10:36:36.643Z,101109.41
2023-04-04T10:41:46.185Z,101107.38
2023-04-04T10:46:53.846Z,101105.00
2023-04-04T10:52:24.676Z,101094.83
2023-04-04T10:58:04.784Z,101093.39
2023-04-04T11:03:28.521Z,101081.70
2023-04-04T11:08:43.115Z,101082.42
2023-04-04T11:14:08.457Z,101080.73
2023-04-04T11:19:20.792Z,101083.74
2023-04-04T11:24:28.322Z,101078.52
2023-04-04T11:30:13.626Z,101077.02
2023-04-04T11:35:27.207Z,101068.77
2023-04-04T11:41:02.492Z,101075.08
2023-04-04T11:47:17.801Z,101077.11
2023-04-04T11:53:24.208Z,101073.55
2023-04-04T11:59:28.180Z,101080.65
2023-04-04T12:04:32.062Z,101078.80
2023-04-04T12:09:48.431Z,101075.81
2023-04-04T12:15:06.226Z,101068.97
2023-04-04T12:20:35.001Z,101068.33
2023-04-04T12:25:44.403Z,101062.73
2023-04-04T12:30:48.164Z,101075.47
2023-04-04T12:35:55.455Z,101072.79
2023-04-04T12:41:09.513Z,101064.73
2023-04-04T12:46:18.311Z,101064.48
2023-04-04T12:51:51.589Z,101062.05
2023-04-04T12:57:22.641Z,101059.64
2023-04-04T13:03:16.641Z,101055.19
2023-04-04T13:08:20.841Z,101047.82
2023-04-04T13:18:59.909Z,101048.83
2023-04-04T13:24:26.419Z,101054.86
2023-04-04T13:29:53.200Z,101052.15
2023-04-04T13:35:02.858Z,101049.23
2023-04-04T13:40:58.288Z,101046.94
2023-04-04T13:46:22.041Z,101043.56
2023-04-04T13:51:31.225Z,101038.43
2023-04-04T13:57:06.948Z,101039.25
2023-04-04T14:02:30.739Z,101041.45
2023-04-04T14:08:01.326Z,101038.13
2023-04-04T14:13:04.912Z,101040.27
2023-04-04T14:18:08.291Z,101042.84
2023-04-04T14:23:14.627Z,101040.04
2023-04-04T14:28:18.317Z,101036.77
2023-04-04T14:33:22.412Z,101035.67
2023-04-04T14:38:26.038Z,101022.35
2023-04-04T14:43:43.476Z,101021.55
2023-04-04T14:49:00.733Z,101020.98
2023-04-04T14:54:04.594Z,101026.86
2023-04-04T14:59:20.364Z,101031.60
2023-04-04T15:04:48.692Z,101034.56
2023-04-04T15:09:52.333Z,101022.16
2023-04-04T15:14:56.123Z,101018.49
2023-04-04T15:20:29.405Z,101015.55
2023-04-04T15:25:38.964Z,101008.98
2023-04-04T15:31:02.654Z,101006.38
2023-04-04T15:36:16.329Z,101006.16
2023-04-04T15:41:30.108Z,101003.21
2023-04-04T15:46:46.939Z,101007.31
2023-04-04T15:52:30.950Z,101008.35
2023-04-04T15:57:36.728Z,101005.55
2023-04-04T16:03:24.012Z,101010.64
2023-04-04T16:08:43.180Z,101005.55
2023-04-04T16:14:30.241Z,101012.75
2023-04-04T16:20:15.275Z,101011.08
2023-04-04T16:25:43.499Z,101009.28
2023-04-04T16:30:47.016Z,101009.19
2023-04-04T16:36:00.920Z,101003.90
2023-04-04T16:41:14.368Z,101010.35
2023-04-04T16:46:51.085Z,101014.27
2023-04-04T16:52:10.872Z,101014.41
2023-04-04T16:57:34.532Z,101009.92
2023-04-04T17:02:45.820Z,101006.33
2023-04-04T17:08:19.394Z,101009.89
2023-04-04T17:13:46.135Z,101013.12
2023-04-04T17:18:49.919Z,101011.15
2023-04-04T17:23:53.560Z,101007.64
2023-04-04T17:29:20.833Z,101011.58
2023-04-04T17:34:27.926Z,101015.48
2023-04-04T17:39:51.766Z,101022.66
2023-04-04T17:45:20.374Z,101029.23
2023-04-04T17:51:06.187Z,101025.09
2023-04-04T17:56:31.562Z,101032.99
2023-04-04T18:02:04.790Z,101032.63
2023-04-04T18:07:28.988Z,101034.29
2023-04-04T18:12:44.554Z,101039.77
2023-04-04T18:17:47.880Z,101039.89
2023-04-04T18:22:52.785Z,101043.33
2023-04-04T18:27:56.234Z,101046.27
2023-04-04T18:32:59.748Z,101050.21
2023-04-04T18:38:03.222Z,101051.23
2023-04-04T18:43:07.044Z,101050.04
2023-04-04T18:48:12.770Z,101049.17
2023-04-04T18:53:16.359Z,101048.46
2023-04-04T18:58:20.195Z,101049.63
2023-04-04T19:03:25.155Z,101049.08
2023-04-04T19:08:32.079Z,101043.54
2023-04-04T19:13:40.396Z,101049.20
2023-04-04T19:18:44.417Z,101046.26
2023-04-04T19:23:47.974Z,101041.45
2023-04-04T19:28:54.608Z,101045.09
2023-04-04T19:33:59.139Z,101049.11
2023-04-04T19:39:31.132Z,101046.04
2023-04-04T19:44:41.476Z,101045.85
2023-04-04T19:49:52.873Z,101048.19
2023-04-04T19:55:53.852Z,101049.90
2023-04-04T20:01:00.453Z,101049.59
2023-04-04T20:06:23.648Z,101053.56
2023-04-04T20:11:33.034Z,101050.20
2023-04-04T20:16:40.542Z,101056.67
2023-04-04T20:22:46.918Z,101054.36
2023-04-04T20:28:22.923Z,101054.66
2023-04-04T20:33:36.823Z,101052.31
2023-04-04T20:38:50.751Z,101053.08
2023-04-04T20:44:19.563Z,101053.36
2023-04-04T20:49:25.980Z,101052.61
2023-04-04T20:54:49.560Z,101044.35
2023-04-04T20:59:53.239Z,101041.08
2023-04-04T21:04:56.754Z,101040.27
2023-04-04T21:10:01.494Z,101040.64
2023-04-04T21:15:10.833Z,101036.69
2023-04-04T21:20:53.803Z,101038.77
2023-04-04T21:25:59.011Z,101035.37
2023-04-04T21:31:17.375Z,101034.50
2023-04-04T21:36:32.794Z,101035.77
2023-04-04T21:41:36.241Z,101038.08
2023-04-04T21:46:41.741Z,101040.95
2023-04-04T21:51:45.587Z,101039.60
2023-04-04T21:56:48.801Z,101034.94
2023-04-04T22:01:51.991Z,101041.73
2023-04-04T22:06:55.544Z,101043.34
2023-04-04T22:11:59.237Z,101042.70
2023-04-04T22:17:05.574Z,101037.75
2023-04-04T22:22:09.628Z,101034.26
2023-04-04T22:27:22.184Z,101038.71
2023-04-04T22:32:26.388Z,101033.23
2023-04-04T22:37:30.770Z,101031.38
2023-04-04T22:42:36.591Z,101030.92
2023-04-04T22:48:20.548Z,101027.88
2023-04-04T22:53:44.588Z,101028.27
2023-04-04T22:58:51.142Z,101028.23
2023-04-04T23:03:54.514Z,101030.21
2023-04-04T23:09:08.434Z,101026.89
2023-04-04T23:14:22.939Z,101022.66
2023-04-04T23:19:39.959Z,101017.36
2023-04-04T23:24:44.803Z,101013.88
2023-04-04T23:29:50.897Z,101012.51
2023-04-04T23:35:04.545Z,101004.45
2023-04-04T23:40:09.074Z,101000.51
2023-04-04T23:45:13.287Z,100995.63
2023-04-04T23:50:17.343Z,100993.83
2023-04-04T23:55:21.014Z,100991.34
